createdAt,value
2018-07-27T00:18:50.783Z,99.90
2018-07-27T00:21:19.614Z,99.90
2018-07-27T00:23:48.578Z,99.90
2018-07-27T00:26:17.473Z,99.90
2018-07-27T00:28:46.329Z,99.90
2018-07-27T00:31:15.224Z,99.90
2018-07-27T00:33:44.103Z,99.90
2018-07-27T00:36:12.989Z,99.90
2018-07-27T00:38:41.912Z,99.90
2018-07-27T00:58:29.632Z,99.90
2018-07-27T01:00:58.668Z,99.90
2018-07-27T01:03:27.561Z,99.90
2018-07-27T01:05:56.791Z,99.90
2018-07-27T01:08:25.700Z,99.90
2018-07-27T01:10:54.905Z,99.90
2018-07-27T01:13:23.743Z,99.90
2018-07-27T01:15:52.640Z,99.90
2018-07-27T01:18:21.763Z,99.90
2018-07-27T01:38:09.459Z,99.90
2018-07-27T01:40:38.307Z,99.90
2018-07-27T01:43:07.482Z,99.90
2018-07-27T01:48:05.234Z,99.90
2018-07-27T01:50:34.126Z,99.90
2018-07-27T01:53:03.342Z,99.90
2018-07-27T01:55:32.183Z,99.90
2018-07-27T01:58:01.085Z,99.90
2018-07-27T02:17:48.530Z,99.90
2018-07-27T02:20:17.402Z,99.90
2018-07-27T02:22:46.252Z,99.90
2018-07-27T02:25:15.151Z,99.90
2018-07-27T02:27:44.067Z,99.90
2018-07-27T02:30:12.902Z,99.90
2018-07-27T02:32:41.868Z,99.90
2018-07-27T02:35:10.743Z,99.90
2018-07-27T02:37:39.615Z,99.90
2018-07-27T03:08:59.862Z,99.90
2018-07-27T03:11:28.706Z,99.90
2018-07-27T03:13:57.581Z,99.90
2018-07-27T03:16:26.467Z,99.90
2018-07-27T03:18:55.744Z,99.90
2018-07-27T03:21:24.628Z,99.90
2018-07-27T03:23:53.512Z,99.90
2018-07-27T03:26:22.372Z,99.90
2018-07-27T03:28:51.827Z,99.90
2018-07-27T03:31:20.694Z,99.60
2018-07-27T03:33:49.554Z,99.50
2018-07-27T03:36:18.414Z,99.70
2018-07-27T03:38:47.606Z,99.10
2018-07-27T03:41:16.588Z,99.30
2018-07-27T03:43:45.467Z,99.70
2018-07-27T03:46:14.535Z,98.80
2018-07-27T04:06:00.014Z,98.80
2018-07-27T04:08:28.904Z,98.70
2018-07-27T04:10:57.895Z,99.40
2018-07-27T04:13:27.290Z,99.00
2018-07-27T04:15:56.191Z,98.80
2018-07-27T04:18:25.027Z,98.50
2018-07-27T04:20:53.890Z,98.50
2018-07-27T04:23:22.954Z,98.00
2018-07-27T04:25:51.803Z,97.70
2018-07-27T04:34:07.217Z,97.20
2018-07-27T04:36:36.434Z,97.20
2018-07-27T04:39:08.069Z,96.10
2018-07-27T04:41:36.976Z,95.90
2018-07-27T04:44:05.818Z,96.00
2018-07-27T04:46:34.713Z,95.60
2018-07-27T04:49:03.568Z,95.70
2018-07-27T04:59:48.078Z,95.20
2018-07-27T05:02:16.951Z,94.60
2018-07-27T05:04:45.802Z,94.60
2018-07-27T05:07:14.825Z,94.50
2018-07-27T05:12:12.296Z,94.40
2018-07-27T05:14:41.166Z,94.40
2018-07-27T05:17:10.715Z,94.40
2018-07-27T05:19:39.556Z,94.20
2018-07-27T05:22:08.370Z,94.00
2018-07-27T05:24:37.267Z,94.20
2018-07-27T05:27:06.309Z,94.00
2018-07-27T05:29:35.146Z,94.10
2018-07-27T05:32:03.970Z,94.30
2018-07-27T05:34:33.131Z,93.80
2018-07-27T05:37:01.952Z,94.00
2018-07-27T05:39:31.340Z,93.60
2018-07-27T05:42:00.175Z,93.60
2018-07-27T05:44:28.995Z,93.40
2018-07-27T05:46:58.208Z,93.80
2018-07-27T05:49:27.212Z,92.90
2018-07-27T05:52:05.363Z,92.90
2018-07-27T05:54:34.574Z,92.20
2018-07-27T05:57:03.457Z,91.70
2018-07-27T05:59:32.363Z,91.60
2018-07-27T06:02:01.133Z,91.40
2018-07-27T06:04:30.223Z,90.90
2018-07-27T06:06:59.102Z,90.70
2018-07-27T06:09:28.257Z,90.00
2018-07-27T06:11:57.107Z,89.40
2018-07-27T06:14:26.317Z,90.20
2018-07-27T06:16:55.396Z,90.10
2018-07-27T06:24:23.874Z,88.90
2018-07-27T06:26:52.567Z,88.50
2018-07-27T06:29:21.688Z,87.70
2018-07-27T06:31:50.408Z,87.10
2018-07-27T06:34:18.978Z,86.40
2018-07-27T06:36:47.644Z,85.30
2018-07-27T06:39:16.327Z,84.10
2018-07-27T06:41:45.358Z,85.10
2018-07-27T06:44:14.173Z,85.10
2018-07-27T06:46:42.759Z,83.60
2018-07-27T06:49:11.492Z,84.60
2018-07-27T06:51:40.089Z,84.80
2018-07-27T06:54:08.705Z,83.70
2018-07-27T06:56:37.257Z,83.60
2018-07-27T06:59:05.850Z,84.20
2018-07-27T07:01:34.453Z,82.70
2018-07-27T07:04:03.094Z,84.10
2018-07-27T07:06:31.693Z,82.10
2018-07-27T07:09:00.267Z,81.30
2018-07-27T07:11:29.002Z,82.50
2018-07-27T07:13:57.547Z,80.80
2018-07-27T07:16:28.278Z,80.60
2018-07-27T07:18:57.016Z,80.90
2018-07-27T07:21:26.044Z,79.40
2018-07-27T07:23:54.949Z,80.50
2018-07-27T07:26:23.839Z,79.20
2018-07-27T07:28:52.383Z,81.00
2018-07-27T07:31:21.425Z,80.40
2018-07-27T07:33:50.519Z,79.40
2018-07-27T07:36:19.448Z,80.80
2018-07-27T07:38:48.017Z,78.00
2018-07-27T07:41:16.758Z,78.60
2018-07-27T07:43:45.673Z,77.80
2018-07-27T07:46:14.584Z,79.60
2018-07-27T07:48:43.172Z,78.90
2018-07-27T07:51:11.791Z,78.90
2018-07-27T07:53:40.350Z,75.60
2018-07-27T07:56:09.309Z,76.80
2018-07-27T07:58:37.892Z,77.90
2018-07-27T08:01:06.618Z,76.10
2018-07-27T08:03:35.197Z,77.70
2018-07-27T08:06:04.124Z,76.20
2018-07-27T08:08:32.762Z,76.40
2018-07-27T08:11:01.341Z,78.60
2018-07-27T08:13:29.881Z,79.40
2018-07-27T08:15:58.433Z,75.30
2018-07-27T08:18:27.164Z,75.20
2018-07-27T08:20:56.420Z,74.10
2018-07-27T08:23:25.010Z,74.10
2018-07-27T08:26:59.352Z,75.50
2018-07-27T08:29:32.319Z,76.30
2018-07-27T08:32:01.563Z,77.80
2018-07-27T08:34:30.120Z,72.90
2018-07-27T08:36:58.720Z,73.10
2018-07-27T08:39:29.764Z,74.00
2018-07-27T08:41:58.527Z,75.70
2018-07-27T08:44:28.462Z,74.40
2018-07-27T08:46:57.057Z,72.40
2018-07-27T08:49:25.661Z,72.70
2018-07-27T08:51:54.375Z,71.90
2018-07-27T08:54:23.010Z,72.70
2018-07-27T08:56:51.857Z,73.20
2018-07-27T08:59:20.530Z,75.40
2018-07-27T09:01:49.227Z,75.20
2018-07-27T09:04:17.850Z,75.60
2018-07-27T09:06:46.526Z,73.40
2018-07-27T09:09:16.401Z,76.00
2018-07-27T09:11:45.351Z,75.70
2018-07-27T09:14:14.189Z,76.10
2018-07-27T09:16:42.832Z,75.20
2018-07-27T09:19:11.426Z,72.40
2018-07-27T09:21:42.092Z,76.00
2018-07-27T09:24:10.817Z,72.80
2018-07-27T09:26:39.442Z,75.10
2018-07-27T09:29:08.072Z,74.80
2018-07-27T09:31:36.816Z,72.00
2018-07-27T09:34:05.497Z,73.10
2018-07-27T09:36:34.352Z,73.80
2018-07-27T09:39:03.146Z,71.80
2018-07-27T09:41:31.747Z,73.40
2018-07-27T09:44:00.706Z,70.00
2018-07-27T09:48:57.900Z,72.10
2018-07-27T09:51:27.654Z,71.30
2018-07-27T09:53:56.481Z,71.20
2018-07-27T09:56:25.312Z,70.00
2018-07-27T10:03:29.803Z,72.60
2018-07-27T10:05:58.466Z,67.40
2018-07-27T10:08:27.256Z,67.40
2018-07-27T10:12:25.161Z,67.50
2018-07-27T10:17:24.838Z,69.40
2018-07-27T10:25:40.281Z,66.70
2018-07-27T10:28:08.908Z,67.80
2018-07-27T10:30:37.583Z,67.50
2018-07-27T10:33:06.272Z,64.70
2018-07-27T10:35:34.945Z,65.70
2018-07-27T10:38:03.613Z,64.60
2018-07-27T10:40:32.255Z,64.50
2018-07-27T10:43:00.915Z,65.30
2018-07-27T10:45:29.590Z,67.20
2018-07-27T10:48:01.853Z,63.20
2018-07-27T10:50:30.489Z,64.20
2018-07-27T10:52:59.113Z,64.40
2018-07-27T10:55:27.888Z,63.40
2018-07-27T10:57:56.588Z,62.90
2018-07-27T11:00:25.545Z,64.00
2018-07-27T11:02:54.188Z,61.70
2018-07-27T11:05:22.818Z,59.40
2018-07-27T11:07:51.898Z,59.40
2018-07-27T11:30:38.512Z,52.90
2018-07-27T11:33:07.162Z,55.20
2018-07-27T11:35:35.783Z,56.90
2018-07-27T11:38:04.443Z,55.40
2018-07-27T11:40:33.094Z,55.00
2018-07-27T11:43:01.721Z,53.50
2018-07-27T11:45:30.406Z,53.20
2018-07-27T11:47:59.042Z,52.60
2018-07-27T11:50:27.639Z,54.40
2018-07-27T11:52:56.406Z,53.00
2018-07-27T11:55:25.080Z,53.30
2018-07-27T12:00:22.083Z,53.40
2018-07-27T12:02:50.841Z,50.30
2018-07-27T12:07:47.764Z,51.40
2018-07-27T12:10:16.367Z,52.50
2018-07-27T12:12:45.289Z,53.50
2018-07-27T12:15:14.194Z,50.00
2018-07-27T12:17:42.650Z,48.80
2018-07-27T12:20:11.305Z,49.20
2018-07-27T12:22:39.872Z,48.10
2018-07-27T12:25:08.488Z,49.10
2018-07-27T12:27:37.077Z,48.80
2018-07-27T12:30:06.062Z,49.30
2018-07-27T12:32:34.707Z,49.10
2018-07-27T12:35:03.931Z,48.30
2018-07-27T12:37:32.613Z,48.80
2018-07-27T12:40:01.348Z,48.30
2018-07-27T13:02:23.649Z,45.80
2018-07-27T13:04:52.209Z,48.00
2018-07-27T13:07:20.832Z,44.90
2018-07-27T13:09:49.864Z,46.00
2018-07-27T13:12:18.865Z,46.40
2018-07-27T13:14:47.499Z,45.10
2018-07-27T13:17:16.427Z,45.10
2018-07-27T13:19:45.008Z,44.90
2018-07-27T13:22:13.710Z,44.30
2018-07-27T13:36:15.657Z,44.40
2018-07-27T13:38:44.209Z,44.80
2018-07-27T13:41:12.867Z,43.40
2018-07-27T13:43:41.494Z,43.50
2018-07-27T13:46:10.202Z,43.50
2018-07-27T13:48:39.208Z,43.50
2018-07-27T13:51:07.842Z,42.30
2018-07-27T13:53:36.439Z,42.70
2018-07-27T13:56:05.052Z,41.40
2018-07-27T14:07:15.852Z,42.80
2018-07-27T14:09:44.795Z,42.30
2018-07-27T14:12:13.443Z,40.80
2018-07-27T14:14:42.302Z,42.20
2018-07-27T14:17:11.055Z,42.20
2018-07-27T14:19:39.657Z,43.20
2018-07-27T14:22:08.624Z,43.10
2018-07-27T14:27:05.616Z,41.60
2018-07-27T14:46:53.850Z,39.80
2018-07-27T14:49:22.499Z,41.20
2018-07-27T14:51:51.087Z,40.60
2018-07-27T14:54:19.739Z,39.50
2018-07-27T14:56:48.383Z,39.40
2018-07-27T14:59:17.042Z,38.40
2018-07-27T15:01:45.648Z,39.60
2018-07-27T15:06:42.787Z,38.00
2018-07-27T15:23:36.972Z,36.30
2018-07-27T15:26:05.778Z,36.60
2018-07-27T15:28:35.249Z,36.10
2018-07-27T15:31:04.126Z,36.10
2018-07-27T15:33:33.304Z,34.90
2018-07-27T15:36:01.982Z,34.80
2018-07-27T15:38:30.619Z,36.00
2018-07-27T15:40:59.219Z,34.50
2018-07-27T15:43:27.823Z,33.90
2018-07-27T15:45:56.458Z,33.30
2018-07-27T15:48:25.332Z,33.30
2018-07-27T15:50:54.033Z,33.70
2018-07-27T15:53:22.662Z,33.90
2018-07-27T15:55:51.340Z,34.80
2018-07-27T15:58:19.945Z,33.20
2018-07-27T16:00:48.617Z,32.10
2018-07-27T16:03:16.966Z,31.00
2018-07-27T16:05:45.667Z,31.20
2018-07-27T16:08:14.260Z,32.20
2018-07-27T16:10:43.072Z,30.30
2018-07-27T16:13:11.872Z,31.70
2018-07-27T16:15:40.722Z,31.50
2018-07-27T16:18:09.688Z,32.20
2018-07-27T16:20:38.297Z,31.60
2018-07-27T16:23:07.032Z,32.50
2018-07-27T16:28:04.525Z,34.30
2018-07-27T16:30:33.162Z,35.40
2018-07-27T16:33:01.767Z,37.10
2018-07-27T16:35:31.678Z,38.30
2018-07-27T16:38:00.538Z,38.60
2018-07-27T16:40:29.182Z,38.30
2018-07-27T16:42:57.786Z,38.30
2018-07-27T16:45:26.380Z,39.10
2018-07-27T16:47:54.986Z,40.00
2018-07-27T16:50:24.474Z,39.90
2018-07-27T16:52:53.382Z,40.20
2018-07-27T16:55:22.149Z,40.60
2018-07-27T16:57:50.761Z,40.70
2018-07-27T17:00:19.443Z,41.90
2018-07-27T17:02:48.133Z,42.60
2018-07-27T17:05:16.968Z,42.70
2018-07-27T17:07:45.614Z,43.00
2018-07-27T17:12:42.880Z,44.30
2018-07-27T17:15:12.091Z,44.20
2018-07-27T17:17:40.675Z,44.10
2018-07-27T17:20:09.518Z,44.10
2018-07-27T17:22:38.391Z,45.20
2018-07-27T17:25:07.089Z,46.50
2018-07-27T17:27:36.270Z,45.40
2018-07-27T17:30:06.303Z,46.10
2018-07-27T17:32:35.411Z,45.60
2018-07-27T17:35:04.419Z,46.90
2018-07-27T17:37:33.716Z,46.50
2018-07-27T17:40:02.298Z,46.00
2018-07-27T17:42:31.253Z,47.00
2018-07-27T17:44:59.862Z,46.90
2018-07-27T17:47:28.497Z,47.70
2018-07-27T17:49:57.112Z,47.80
2018-07-27T17:52:25.920Z,47.60
2018-07-27T17:54:54.588Z,47.70
2018-07-27T18:00:00.469Z,47.70
2018-07-27T18:02:29.418Z,48.50
2018-07-27T18:04:58.047Z,48.40
2018-07-27T18:07:26.856Z,49.10
2018-07-27T18:09:56.276Z,49.40
2018-07-27T18:14:54.047Z,50.30
2018-07-27T18:17:22.635Z,50.30
2018-07-27T18:19:51.221Z,50.30
2018-07-27T18:22:19.805Z,52.10
2018-07-27T18:24:48.709Z,52.60
2018-07-27T18:27:17.365Z,54.80
2018-07-27T18:29:46.281Z,56.10
2018-07-27T18:32:14.964Z,56.20
2018-07-27T18:34:43.573Z,56.70
2018-07-27T18:37:12.192Z,56.00
2018-07-27T18:39:40.855Z,58.10
2018-07-27T18:42:09.632Z,57.10
2018-07-27T18:44:38.343Z,55.50
2018-07-27T18:47:07.031Z,56.30
2018-07-27T18:49:35.658Z,57.90
2018-07-27T18:52:04.496Z,55.50
2018-07-27T18:54:33.173Z,58.30
2018-07-27T18:59:30.196Z,58.10
2018-07-27T19:04:27.671Z,58.10
2018-07-27T19:09:25.003Z,58.00
2018-07-27T19:11:53.620Z,58.90
2018-07-27T19:14:22.208Z,59.40
2018-07-27T19:16:51.172Z,58.40
2018-07-27T19:19:19.816Z,59.60
2018-07-27T19:21:48.461Z,60.70
2018-07-27T19:24:17.105Z,59.90
2018-07-27T19:26:46.080Z,63.80
2018-07-27T19:29:15.831Z,62.00
2018-07-27T19:31:44.602Z,60.00
2018-07-27T19:34:13.497Z,60.30
2018-07-27T19:36:42.629Z,59.90
2018-07-27T19:39:12.440Z,64.40
2018-07-27T19:41:42.264Z,66.70
2018-07-27T19:44:11.332Z,71.60
2018-07-27T19:46:40.236Z,72.80
2018-07-27T19:49:09.289Z,72.50
2018-07-27T19:51:38.350Z,73.40
2018-07-27T19:54:07.259Z,73.00
2018-07-27T19:56:36.212Z,74.70
2018-07-27T19:59:05.121Z,76.00
2018-07-27T20:01:33.769Z,75.70
2018-07-27T20:04:02.703Z,75.60
2018-07-27T20:06:31.587Z,77.10
2018-07-27T20:09:00.458Z,76.00
2018-07-27T20:11:29.688Z,74.70
2018-07-27T20:13:58.570Z,70.30
2018-07-27T20:16:27.486Z,70.00
2018-07-27T20:18:56.338Z,72.50
2018-07-27T20:21:25.232Z,65.10
2018-07-27T20:23:54.253Z,68.70
2018-07-27T20:26:23.127Z,70.60
2018-07-27T20:28:52.481Z,72.60
2018-07-27T20:31:21.449Z,74.90
2018-07-27T20:33:50.291Z,74.80
2018-07-27T20:36:19.140Z,71.20
2018-07-27T20:38:47.995Z,71.10
2018-07-27T20:41:16.894Z,70.20
2018-07-27T20:43:45.828Z,70.10
2018-07-27T20:46:14.734Z,71.40
2018-07-27T20:48:43.684Z,71.30
2018-07-27T20:51:12.554Z,69.60
2018-07-27T20:53:41.426Z,67.60
2018-07-27T20:56:10.657Z,66.20
2018-07-27T20:58:39.569Z,65.30
2018-07-27T21:01:08.621Z,63.80
2018-07-27T21:03:37.527Z,63.50
2018-07-27T21:06:06.760Z,63.50
2018-07-27T21:08:35.697Z,62.20
2018-07-27T21:11:04.961Z,61.30
2018-07-27T21:13:33.853Z,60.00
2018-07-27T21:16:02.753Z,59.60
2018-07-27T21:18:31.804Z,59.70
2018-07-27T21:21:00.678Z,59.40
2018-07-27T21:23:29.627Z,59.10
2018-07-27T21:25:58.535Z,59.30
2018-07-27T21:28:27.414Z,58.80
2018-07-27T21:30:56.355Z,59.60
2018-07-27T21:33:25.545Z,59.20
2018-07-27T21:35:54.490Z,59.10
2018-07-27T21:38:23.492Z,59.10
2018-07-27T21:40:52.381Z,59.40
2018-07-27T21:43:21.461Z,59.10
2018-07-27T21:45:50.788Z,59.40
2018-07-27T21:48:19.657Z,59.60
2018-07-27T21:50:48.569Z,59.50
2018-07-27T21:55:46.530Z,60.00
2018-07-27T21:58:15.373Z,59.60
2018-07-27T22:00:44.227Z,59.90
2018-07-27T22:03:13.110Z,59.90
2018-07-27T22:05:42.312Z,60.30
2018-07-27T22:08:11.128Z,61.90
2018-07-27T22:10:40.352Z,63.20
2018-07-27T22:15:38.404Z,64.30
2018-07-27T22:18:07.347Z,64.50
2018-07-27T22:23:05.310Z,70.50
2018-07-27T22:25:34.891Z,73.90
2018-07-27T22:28:04.299Z,75.40
2018-07-27T22:30:33.207Z,73.80
2018-07-27T22:33:02.099Z,72.00
2018-07-27T22:35:30.990Z,82.70
2018-07-27T22:38:00.033Z,86.70
2018-07-27T22:40:28.982Z,89.90
2018-07-27T22:42:58.016Z,91.60
2018-07-27T22:45:27.661Z,93.50
2018-07-27T22:47:56.576Z,95.70
2018-07-27T22:50:25.657Z,97.60
2018-07-27T22:52:55.301Z,99.20
2018-07-27T22:55:24.348Z,99.90
2018-07-27T22:57:53.770Z,99.90
2018-07-27T23:00:22.659Z,99.90
2018-07-27T23:02:51.581Z,99.90
2018-07-27T23:05:20.787Z,99.90
2018-07-27T23:07:49.686Z,99.90
2018-07-27T23:10:18.640Z,99.90
2018-07-27T23:12:47.546Z,99.90
2018-07-27T23:15:17.690Z,99.90
2018-07-27T23:17:46.661Z,99.90
2018-07-27T23:20:15.578Z,99.90
2018-07-27T23:22:44.567Z,99.90
2018-07-27T23:25:13.478Z,99.90
2018-07-27T23:27:42.368Z,99.90
2018-07-27T23:30:12.930Z,99.90
2018-07-27T23:32:42.169Z,99.90
2018-07-27T23:40:36.742Z,99.90
2018-07-27T23:43:05.958Z,99.90
2018-07-27T23:45:35.204Z,99.90
2018-07-27T23:50:32.952Z,99.90
2018-07-27T23:53:01.832Z,99.90
2018-07-27T23:55:31.046Z,99.90
2018-07-27T23:57:59.903Z,99.90
